Fdl, Wisconsin
Current Conditions -  °F | °C
As of 12:53 PM on Thursday 30 Oct 2014 (Local Time) from KFLD Reporting Station
Overcast Overcast  
Wind Chill: 45°   Ceiling: 10000
Heat Index: 49°   Visibility: 10mi
Dew Point: 35°   Wind: 9mph
Humidity: 59%   Direction: 270°W
Pressure: 30.06"   Gusts: NA
Location:  43.7436°N, 88.3886°W
Report Text: KFLD 301753Z AUTO 27008KT 10SM OVC100 09/02 A3006 RMK AO2 SLP186 T00940017 10094 20000 58010
Loading
Personal Weather Stations






























Interactive Weather Map
Tropical Storm Tracking
New forecast layout! Learn more

10-Day Weather Forecast

Advertisements
Track Severe Weather on mobile